Time;durP1;ratioP1;P1;durP2;ratioP2;P2;SDS_P1;SDS_P2;PMS_P1;PMS_P2;Temp;Humidity;BMP_temperature;BMP_pressure;BME280_temperature;BME280_humidity;BME280_pressure;Samples;Min_cycle;Max_cycle;Signal;HPM_P1;HPM_P2
2024/05/05 00:02:08;;;;;;;4.50;4.20;;;17.50;97.60;;;;;;5442625;26;20561;-87
2024/05/05 00:04:36;;;;;;;5.23;4.80;;;17.20;97.70;;;;;;5444318;26;20584;-87
2024/05/05 00:07:05;;;;;;;5.40;4.53;;;17.30;97.70;;;;;;5438329;26;20849;-88
2024/05/05 00:09:31;;;;;;;4.83;4.53;;;17.40;97.80;;;;;;5431099;26;20490;-88
2024/05/05 00:11:59;;;;;;;5.10;4.80;;;17.40;98.00;;;;;;5446641;26;20569;-88
2024/05/05 00:14:31;;;;;;;4.90;4.60;;;17.40;98.60;;;;;;5434671;26;20244;-87
2024/05/05 00:16:59;;;;;;;5.70;5.30;;;17.30;98.20;;;;;;5429311;26;20470;-87
2024/05/05 00:19:27;;;;;;;5.70;5.27;;;17.60;99.10;;;;;;5431521;26;20480;-86
2024/05/05 00:21:56;;;;;;;5.93;5.53;;;17.50;99.00;;;;;;5443455;26;20549;-84
2024/05/05 00:24:24;;;;;;;6.73;6.23;;;17.30;98.80;;;;;;5455367;26;20538;-83
2024/05/05 00:26:53;;;;;;;6.37;5.87;;;17.30;98.90;;;;;;5441163;26;20598;-83
2024/05/05 00:29:21;;;;;;;6.27;5.87;;;17.50;98.80;;;;;;5427989;26;20617;-84
2024/05/05 00:31:52;;;;;;;7.63;6.93;;;17.50;99.30;;;;;;5439063;26;20597;-84
2024/05/05 00:34:20;;;;;;;7.33;6.63;;;17.60;99.50;;;;;;5448261;26;20585;-84
2024/05/05 00:36:49;;;;;;;8.17;7.43;;;17.20;99.60;;;;;;5456705;26;21139;-84
2024/05/05 00:39:18;;;;;;;7.67;6.90;;;17.10;99.80;;;;;;5433787;26;20890;-83
2024/05/05 00:41:46;;;;;;;7.03;6.53;;;17.10;99.90;;;;;;5433425;26;20535;-84
2024/05/05 00:44:15;;;;;;;7.20;6.70;;;17.10;99.90;;;;;;5432103;26;21203;-84
2024/05/05 00:46:43;;;;;;;8.17;7.37;;;17.10;99.90;;;;;;5431086;26;20544;-86
2024/05/05 00:49:16;;;;;;;8.13;7.37;;;17.10;99.90;;;;;;5425792;26;20618;-84
2024/05/05 00:51:45;;;;;;;8.70;8.00;;;17.00;99.90;;;;;;5422694;26;20946;-84
2024/05/05 00:54:14;;;;;;;7.90;7.17;;;17.00;99.90;;;;;;5462361;21;21136;-82
2024/05/05 00:56:44;;;;;;;9.03;8.20;;;17.00;99.90;;;;;;5421172;26;20534;-83
2024/05/05 00:59:15;;;;;;;9.43;8.60;;;17.30;99.90;;;;;;5403848;26;20980;-82
2024/05/05 01:01:43;;;;;;;8.50;7.80;;;16.90;99.90;;;;;;5414502;26;20535;-82
2024/05/05 01:04:14;;;;;;;9.07;8.27;;;16.90;99.90;;;;;;5418334;26;20467;-83
2024/05/05 01:06:43;;;;;;;10.30;9.30;;;16.90;99.90;;;;;;5418590;26;20624;-83
2024/05/05 01:09:12;;;;;;;9.10;8.40;;;16.90;99.90;;;;;;5398435;26;20572;-83
2024/05/05 01:11:40;;;;;;;9.27;8.47;;;16.80;99.90;;;;;;5417592;26;20545;-83
2024/05/05 01:14:09;;;;;;;8.70;7.93;;;16.90;99.90;;;;;;5418121;26;20472;-81
2024/05/05 01:16:37;;;;;;;8.67;7.90;;;16.80;99.90;;;;;;5415817;26;20570;-82
2024/05/05 01:19:05;;;;;;;8.80;8.10;;;16.90;99.90;;;;;;5423704;26;20480;-83
2024/05/05 01:21:37;;;;;;;8.00;7.33;;;16.80;99.90;;;;;;5424915;26;21152;-83
2024/05/05 01:24:08;;;;;;;8.50;7.77;;;16.80;99.90;;;;;;5418634;26;20476;-82
2024/05/05 01:26:36;;;;;;;9.33;8.53;;;16.80;99.90;;;;;;5418904;26;20548;-83
2024/05/05 01:29:05;;;;;;;9.80;8.90;;;16.80;99.90;;;;;;5411399;26;20533;-84
2024/05/05 01:31:34;;;;;;;10.43;9.33;;;16.70;99.90;;;;;;5418881;26;20628;-82
2024/05/05 01:34:02;;;;;;;11.60;9.07;;;16.70;99.90;;;;;;5420378;26;20488;-83
2024/05/05 01:36:31;;;;;;;9.73;8.73;;;16.60;99.90;;;;;;5421978;26;20474;-82
2024/05/05 01:38:59;;;;;;;9.67;8.77;;;16.60;99.90;;;;;;5420386;26;21048;-82
2024/05/05 01:41:30;;;;;;;10.17;9.17;;;16.60;99.90;;;;;;5437237;26;20617;-81
2024/05/05 01:43:58;;;;;;;9.37;8.50;;;16.60;99.90;;;;;;5420193;26;20580;-81
2024/05/05 01:46:27;;;;;;;8.40;7.70;;;16.60;99.90;;;;;;5439832;26;20490;-82
2024/05/05 01:48:55;;;;;;;9.90;9.00;;;16.60;99.90;;;;;;5411316;26;21129;-82
2024/05/05 01:51:23;;;;;;;9.87;8.97;;;16.60;99.90;;;;;;5424934;26;20596;-83
2024/05/05 01:53:52;;;;;;;10.33;9.40;;;16.60;99.90;;;;;;5420165;26;20565;-84
2024/05/05 01:56:24;;;;;;;11.20;10.20;;;16.50;99.90;;;;;;5426589;26;21079;-84
2024/05/05 01:58:55;;;;;;;9.70;8.70;;;16.40;99.90;;;;;;5423160;26;21103;-84
2024/05/05 02:01:23;;;;;;;10.10;9.20;;;16.40;99.90;;;;;;5427502;26;20591;-84
2024/05/05 02:03:52;;;;;;;10.87;9.80;;;16.60;99.90;;;;;;5412366;26;20491;-83
2024/05/05 02:06:22;;;;;;;11.10;10.00;;;16.40;99.90;;;;;;5429093;26;20779;-82
2024/05/05 02:08:50;;;;;;;11.73;10.57;;;16.40;99.90;;;;;;5421613;26;20467;-82
2024/05/05 02:11:19;;;;;;;11.03;10.03;;;16.40;99.90;;;;;;5428480;26;20551;-83
2024/05/05 02:13:48;;;;;;;13.13;9.63;;;16.40;99.90;;;;;;5433371;26;20560;-82
2024/05/05 02:16:19;;;;;;;9.67;8.77;;;16.40;99.90;;;;;;5428537;26;20473;-82
2024/05/05 02:18:47;;;;;;;11.30;10.20;;;16.80;99.90;;;;;;5421772;26;20546;-83
2024/05/05 02:21:15;;;;;;;10.40;9.40;;;16.50;99.90;;;;;;5400885;26;20480;-83
2024/05/05 02:23:44;;;;;;;11.03;10.00;;;16.50;99.90;;;;;;5421827;26;20615;-83
2024/05/05 02:26:12;;;;;;;10.53;9.50;;;16.80;99.90;;;;;;5423512;26;20489;-83
2024/05/05 02:28:41;;;;;;;13.67;11.43;;;16.50;99.90;;;;;;5420337;26;20547;-82
2024/05/05 02:31:09;;;;;;;12.40;11.20;;;16.60;99.90;;;;;;5427558;26;20550;-83
2024/05/05 02:33:40;;;;;;;10.57;9.57;;;16.30;99.90;;;;;;5404877;26;20568;-82
2024/05/05 02:36:08;;;;;;;12.63;11.33;;;16.20;99.90;;;;;;5412481;26;20494;-82
2024/05/05 02:38:37;;;;;;;12.50;11.20;;;16.20;99.90;;;;;;5415728;26;20484;-82
2024/05/05 02:41:05;;;;;;;12.63;11.43;;;16.10;99.90;;;;;;5415310;26;20467;-82
2024/05/05 02:43:34;;;;;;;13.23;11.83;;;16.00;99.90;;;;;;5389873;26;20598;-82
2024/05/05 02:46:02;;;;;;;11.73;10.63;;;16.00;99.90;;;;;;5406980;26;21133;-83
2024/05/05 02:48:30;;;;;;;12.93;11.73;;;16.00;99.90;;;;;;5428023;26;20549;-83
2024/05/05 02:51:02;;;;;;;13.20;11.80;;;16.10;99.90;;;;;;5419469;26;20549;-83
2024/05/05 02:53:30;;;;;;;13.57;12.23;;;16.20;99.90;;;;;;5416498;26;21154;-83
2024/05/05 02:55:59;;;;;;;12.93;11.63;;;16.20;99.90;;;;;;5421805;26;21136;-83
2024/05/05 02:58:27;;;;;;;13.50;12.20;;;16.50;99.90;;;;;;5421083;26;20526;-83
2024/05/05 03:00:56;;;;;;;12.90;11.70;;;16.40;99.90;;;;;;5433391;26;20626;-82
2024/05/05 03:03:26;;;;;;;13.40;12.10;;;16.20;99.90;;;;;;5421061;26;20567;-82
2024/05/05 03:05:54;;;;;;;12.70;11.50;;;16.20;99.90;;;;;;5421652;26;20472;-83
2024/05/05 03:08:27;;;;;;;13.40;12.00;;;16.20;99.90;;;;;;5415499;26;20531;-83
2024/05/05 03:10:56;;;;;;;13.23;11.93;;;16.20;99.90;;;;;;5411218;26;20470;-83
2024/05/05 03:13:24;;;;;;;12.60;11.50;;;16.20;99.90;;;;;;5421745;26;20475;-83
2024/05/05 03:15:53;;;;;;;12.13;10.93;;;16.50;99.90;;;;;;5425016;26;20902;-83
2024/05/05 03:18:21;;;;;;;13.27;11.97;;;16.30;99.90;;;;;;5420310;26;20546;-83
2024/05/05 03:20:50;;;;;;;15.03;12.50;;;16.30;99.90;;;;;;5416165;26;20610;-83
2024/05/05 03:23:19;;;;;;;12.80;11.60;;;16.30;99.90;;;;;;5422626;26;20497;-81
2024/05/05 03:25:50;;;;;;;13.47;12.07;;;16.30;99.90;;;;;;5422179;26;20516;-83
2024/05/05 03:28:19;;;;;;;13.00;11.70;;;16.40;99.90;;;;;;5421233;26;20528;-83
2024/05/05 03:30:47;;;;;;;12.47;11.27;;;16.30;99.90;;;;;;5419039;26;20492;-83
2024/05/05 03:33:16;;;;;;;12.33;11.13;;;16.40;99.90;;;;;;5420122;26;20549;-83
2024/05/05 03:35:44;;;;;;;11.60;10.60;;;16.40;99.90;;;;;;5419999;26;20512;-82
2024/05/05 03:38:14;;;;;;;12.23;11.03;;;16.50;99.90;;;;;;5416422;26;20565;-83
2024/05/05 03:40:43;;;;;;;10.90;9.90;;;16.50;99.90;;;;;;5419731;26;20540;-83
2024/05/05 03:43:14;;;;;;;11.67;10.57;;;16.60;99.90;;;;;;5419967;26;20505;-83
2024/05/05 03:45:42;;;;;;;11.27;10.17;;;16.60;99.90;;;;;;5421034;26;20643;-84
2024/05/05 03:48:10;;;;;;;11.97;10.90;;;16.60;99.90;;;;;;5421383;26;20562;-84
2024/05/05 03:50:39;;;;;;;11.97;10.90;;;16.50;99.90;;;;;;5421234;26;20913;-84
2024/05/05 03:53:07;;;;;;;9.50;8.70;;;16.50;99.90;;;;;;5417500;26;20503;-84
2024/05/05 03:55:36;;;;;;;9.50;8.70;;;16.60;99.90;;;;;;5419196;26;20561;-85
2024/05/05 03:58:04;;;;;;;9.30;8.50;;;16.60;99.90;;;;;;5421394;26;20525;-83
2024/05/05 04:00:35;;;;;;;10.57;9.57;;;16.70;99.90;;;;;;5420908;26;20612;-83
2024/05/05 04:03:03;;;;;;;10.67;9.57;;;16.70;99.90;;;;;;5422040;26;20596;-83
2024/05/05 04:05:32;;;;;;;9.60;8.60;;;16.60;99.90;;;;;;5420804;26;20960;-84
2024/05/05 04:08:01;;;;;;;10.00;9.10;;;16.50;99.90;;;;;;5421202;26;20483;-83
2024/05/05 04:10:29;;;;;;;9.30;8.50;;;16.50;99.90;;;;;;5416671;26;20628;-83
2024/05/05 04:12:58;;;;;;;10.47;9.53;;;16.50;99.90;;;;;;5422015;26;20475;-83
2024/05/05 04:15:26;;;;;;;9.63;8.80;;;16.50;99.90;;;;;;5420297;26;21160;-83
2024/05/05 04:17:57;;;;;;;10.10;9.20;;;16.40;99.90;;;;;;5385066;26;20547;-83
2024/05/05 04:20:25;;;;;;;9.40;8.50;;;16.50;99.90;;;;;;5384099;26;20589;-83
2024/05/05 04:22:54;;;;;;;10.90;9.80;;;16.60;99.90;;;;;;5407981;26;20628;-84
2024/05/05 04:25:22;;;;;;;9.43;8.20;;;16.60;99.90;;;;;;5418210;26;20553;-84
2024/05/05 04:27:53;;;;;;;9.67;8.60;;;16.70;99.90;;;;;;5420460;26;20465;-83
2024/05/05 04:30:21;;;;;;;9.27;8.37;;;16.80;99.90;;;;;;5418420;26;20602;-82
2024/05/05 04:32:49;;;;;;;8.97;7.43;;;16.80;99.90;;;;;;5417485;26;20613;-82
2024/05/05 04:35:20;;;;;;;8.00;7.30;;;16.90;99.90;;;;;;5419408;26;20540;-84
2024/05/05 04:37:49;;;;;;;8.47;7.77;;;17.10;99.90;;;;;;5420556;26;21043;-83
2024/05/05 04:40:17;;;;;;;8.23;7.53;;;17.00;99.90;;;;;;5417725;26;20490;-83
2024/05/05 04:42:46;;;;;;;7.80;7.10;;;17.10;99.90;;;;;;5423530;26;20583;-83
2024/05/05 04:45:14;;;;;;;7.27;6.67;;;17.10;99.90;;;;;;5419528;26;20529;-83
2024/05/05 04:47:42;;;;;;;7.87;7.20;;;17.30;99.90;;;;;;5419618;26;20528;-83
2024/05/05 04:50:11;;;;;;;7.17;6.60;;;17.60;99.90;;;;;;5419787;26;20536;-83
2024/05/05 04:52:42;;;;;;;6.50;6.00;;;17.40;99.90;;;;;;5417990;26;20623;-82
2024/05/05 04:55:10;;;;;;;6.10;5.60;;;17.40;99.90;;;;;;5419935;26;20471;-83
2024/05/05 04:57:39;;;;;;;7.57;6.87;;;17.40;99.90;;;;;;5394098;26;20476;-83
2024/05/05 05:00:08;;;;;;;6.20;5.80;;;17.40;99.90;;;;;;5418556;26;20568;-82
2024/05/05 05:02:36;;;;;;;5.10;4.80;;;17.50;99.90;;;;;;5417426;26;20600;-82
2024/05/05 05:05:05;;;;;;;3.47;3.27;;;17.50;99.90;;;;;;5419272;26;20469;-82
2024/05/05 05:07:33;;;;;;;3.10;2.90;;;17.40;99.90;;;;;;5419105;26;20523;-82
2024/05/05 05:10:04;;;;;;;3.20;3.10;;;17.40;99.90;;;;;;5419336;26;20480;-82
2024/05/05 05:12:33;;;;;;;2.97;2.77;;;17.40;99.90;;;;;;5433054;26;20469;-81
2024/05/05 05:15:01;;;;;;;3.10;2.90;;;17.40;99.90;;;;;;5391999;26;20529;-82
2024/05/05 05:17:30;;;;;;;2.60;2.50;;;17.50;99.90;;;;;;5419227;26;20787;-83
2024/05/05 05:19:58;;;;;;;3.37;3.17;;;17.70;99.90;;;;;;5413678;26;20461;-82
2024/05/05 05:22:26;;;;;;;2.77;2.67;;;17.50;99.90;;;;;;5417147;26;20627;-82
2024/05/05 05:24:55;;;;;;;2.53;2.40;;;17.60;99.90;;;;;;5417803;26;20609;-82
2024/05/05 05:27:26;;;;;;;2.93;2.77;;;17.90;99.90;;;;;;5418069;26;20525;-82
2024/05/05 05:29:54;;;;;;;2.97;2.87;;;17.60;99.90;;;;;;5418005;26;20949;-82
2024/05/05 05:32:22;;;;;;;3.13;3.03;;;17.60;99.90;;;;;;5428337;26;20592;-82
2024/05/05 05:34:51;;;;;;;3.10;2.90;;;17.70;99.90;;;;;;5429623;26;20478;-82
2024/05/05 05:37:20;;;;;;;2.97;2.87;;;17.70;99.90;;;;;;5422844;26;20640;-82
2024/05/05 05:39:48;;;;;;;2.57;2.47;;;17.90;99.90;;;;;;5424128;26;20630;-82
2024/05/05 05:42:18;;;;;;;2.83;2.73;;;17.70;99.90;;;;;;5424782;26;20581;-82
2024/05/05 05:44:49;;;;;;;2.50;2.40;;;17.60;99.90;;;;;;5425067;26;20465;-82
2024/05/05 05:47:17;;;;;;;3.00;2.80;;;17.80;99.90;;;;;;5424946;26;20590;-82
2024/05/05 05:49:46;;;;;;;2.60;2.50;;;17.50;99.90;;;;;;5427292;26;21126;-82
2024/05/05 05:52:14;;;;;;;2.27;2.17;;;17.50;99.90;;;;;;5411363;26;20537;-82
2024/05/05 05:54:43;;;;;;;2.70;2.60;;;17.50;99.90;;;;;;5425592;26;20975;-82
2024/05/05 05:57:11;;;;;;;2.90;2.70;;;17.50;99.90;;;;;;5418705;26;20532;-83
2024/05/05 05:59:40;;;;;;;2.90;2.80;;;17.60;99.90;;;;;;5425032;26;20583;-92
2024/05/05 06:02:11;;;;;;;2.70;2.60;;;17.60;99.90;;;;;;5419167;26;20494;-84
2024/05/05 06:04:39;;;;;;;2.80;2.60;;;17.90;99.90;;;;;;5423198;26;20869;-84
2024/05/05 06:07:08;;;;;;;3.10;3.00;;;17.70;99.90;;;;;;5423325;26;20485;-82
2024/05/05 06:09:36;;;;;;;2.67;2.53;;;17.80;99.90;;;;;;5423229;26;20553;-84
2024/05/05 06:12:05;;;;;;;2.43;2.33;;;17.80;99.90;;;;;;5423228;26;20882;-84
2024/05/05 06:14:33;;;;;;;3.10;3.00;;;17.90;99.90;;;;;;5421390;26;20547;-83
2024/05/05 06:17:02;;;;;;;3.57;2.20;;;18.00;99.90;;;;;;5414614;26;20548;-86
2024/05/05 06:19:33;;;;;;;2.77;2.57;;;18.10;99.90;;;;;;5434417;26;20546;-85
2024/05/05 06:22:01;;;;;;;2.30;2.10;;;18.10;99.90;;;;;;5411024;26;20962;-83
2024/05/05 06:24:29;;;;;;;2.33;2.20;;;18.20;99.90;;;;;;5422978;26;20639;-83
2024/05/05 06:26:59;;;;;;;2.23;2.13;;;18.20;99.90;;;;;;5424274;26;21039;-82
2024/05/05 06:29:27;;;;;;;2.53;2.43;;;18.40;99.90;;;;;;5421816;26;20562;-82
2024/05/05 06:31:56;;;;;;;2.50;2.40;;;18.50;99.90;;;;;;5422944;26;20572;-83
2024/05/05 06:34:24;;;;;;;2.00;1.90;;;18.50;99.90;;;;;;5420923;26;20492;-84
2024/05/05 06:36:55;;;;;;;2.40;2.30;;;18.60;99.90;;;;;;5420425;26;20568;-83
2024/05/05 06:39:23;;;;;;;2.13;2.03;;;18.70;99.90;;;;;;5427225;26;20543;-83
2024/05/05 06:41:52;;;;;;;2.20;2.10;;;18.70;99.90;;;;;;5421539;26;20474;-83
2024/05/05 06:44:20;;;;;;;2.50;2.40;;;18.70;99.90;;;;;;5420129;26;20528;-83
2024/05/05 06:46:48;;;;;;;2.20;2.10;;;18.80;99.90;;;;;;5420032;26;20898;-84
2024/05/05 06:49:17;;;;;;;2.10;2.00;;;19.00;99.90;;;;;;5420173;26;21040;-84
2024/05/05 06:51:46;;;;;;;2.63;2.53;;;19.00;99.90;;;;;;5420568;26;21159;-84
2024/05/05 06:54:17;;;;;;;2.90;2.70;;;19.10;99.90;;;;;;5470635;21;20582;-81
2024/05/05 06:56:46;;;;;;;3.20;2.90;;;19.20;99.90;;;;;;5494769;26;20467;-81
2024/05/05 06:59:14;;;;;;;2.90;2.70;;;19.10;99.90;;;;;;5474163;26;20469;-81
2024/05/05 07:01:42;;;;;;;2.83;2.73;;;19.00;99.90;;;;;;5456556;26;20619;-81
2024/05/05 07:04:11;;;;;;;3.20;3.00;;;19.00;99.90;;;;;;5456256;26;20570;-81
2024/05/05 07:06:39;;;;;;;3.30;3.20;;;18.90;99.90;;;;;;5457779;26;21067;-81
2024/05/05 07:09:07;;;;;;;3.50;3.40;;;18.90;99.90;;;;;;5440046;26;20537;-82
2024/05/05 07:11:38;;;;;;;3.43;3.00;;;18.90;99.90;;;;;;5421137;26;20573;-81
2024/05/05 07:14:07;;;;;;;3.20;3.10;;;19.00;99.90;;;;;;5421030;26;20579;-82
2024/05/05 07:16:35;;;;;;;2.50;2.40;;;18.80;99.90;;;;;;5419697;26;20484;-81
2024/05/05 07:19:03;;;;;;;2.97;2.87;;;18.80;99.90;;;;;;5437692;26;20868;-81
2024/05/05 07:21:32;;;;;;;3.50;3.20;;;18.70;99.90;;;;;;5456267;26;20604;-81
2024/05/05 07:24:00;;;;;;;3.20;2.80;;;18.80;99.90;;;;;;5450734;26;20560;-81
2024/05/05 07:26:29;;;;;;;2.53;2.33;;;18.90;99.90;;;;;;5453462;26;20520;-81
2024/05/05 07:29:00;;;;;;;4.40;2.90;;;19.00;99.90;;;;;;5420933;26;20526;-81
2024/05/05 07:31:28;;;;;;;3.17;2.97;;;19.20;99.90;;;;;;5421696;26;20946;-82
2024/05/05 07:33:56;;;;;;;3.50;3.30;;;19.30;99.90;;;;;;5420289;26;20951;-81
2024/05/05 07:36:25;;;;;;;3.20;3.00;;;19.40;99.90;;;;;;5430653;26;20572;-81
2024/05/05 07:38:53;;;;;;;3.33;3.07;;;19.60;99.90;;;;;;5420132;26;20571;-81
2024/05/05 07:41:21;;;;;;;3.10;2.80;;;19.70;99.90;;;;;;5421919;26;20531;-81
2024/05/05 07:43:50;;;;;;;3.10;2.90;;;20.00;99.20;;;;;;5420955;26;20462;-81
2024/05/05 07:46:21;;;;;;;2.63;2.50;;;20.10;98.40;;;;;;5420829;26;21188;-81
2024/05/05 07:48:49;;;;;;;2.80;2.60;;;20.10;96.80;;;;;;5421829;26;20459;-81
2024/05/05 07:51:18;;;;;;;2.20;2.10;;;20.10;95.70;;;;;;5433067;26;21010;-81
2024/05/05 07:53:46;;;;;;;2.30;2.20;;;20.30;95.50;;;;;;5420995;26;20511;-81
2024/05/05 07:56:14;;;;;;;2.27;2.17;;;20.70;94.90;;;;;;5420109;26;20590;-81
2024/05/05 07:58:43;;;;;;;2.40;2.30;;;20.70;93.00;;;;;;5455518;26;20549;-81
2024/05/05 08:01:12;;;;;;;2.20;2.07;;;20.80;92.20;;;;;;5457107;26;20469;-81
2024/05/05 08:03:43;;;;;;;2.40;2.30;;;20.80;91.70;;;;;;5456883;26;21170;-81
2024/05/05 08:06:11;;;;;;;2.30;2.20;;;20.80;92.20;;;;;;5443008;26;20606;-81
2024/05/05 08:08:39;;;;;;;2.83;2.70;;;21.00;92.30;;;;;;5456077;26;21071;-81
2024/05/05 08:11:08;;;;;;;2.50;2.40;;;21.10;91.00;;;;;;5456650;26;20520;-82
2024/05/05 08:13:37;;;;;;;2.60;2.50;;;21.10;90.80;;;;;;5438595;26;20547;-82
2024/05/05 08:16:05;;;;;;;2.40;2.30;;;21.00;90.10;;;;;;5440627;26;20533;-82
2024/05/05 08:18:34;;;;;;;2.60;2.50;;;21.00;90.50;;;;;;5446464;26;20536;-81
2024/05/05 08:21:06;;;;;;;2.40;2.20;;;21.20;90.40;;;;;;5418963;26;21049;-82
2024/05/05 08:23:36;;;;;;;2.50;2.40;;;21.20;89.10;;;;;;5417249;26;20471;-82
2024/05/05 08:26:05;;;;;;;2.53;2.43;;;21.20;89.00;;;;;;5438640;26;20589;-81
2024/05/05 08:28:33;;;;;;;3.20;3.00;;;21.30;87.30;;;;;;5454567;26;20592;-82
2024/05/05 08:31:01;;;;;;;2.10;2.00;;;21.30;86.00;;;;;;5454440;26;20457;-81
2024/05/05 08:33:30;;;;;;;2.50;2.40;;;21.50;86.60;;;;;;5434112;26;20474;-82
2024/05/05 08:35:58;;;;;;;3.13;2.93;;;22.10;89.40;;;;;;5435360;26;20619;-82
2024/05/05 08:38:29;;;;;;;1.77;1.67;;;22.90;85.70;;;;;;5454520;26;21127;-82
2024/05/05 08:40:59;;;;;;;2.30;2.20;;;24.10;84.00;;;;;;5426362;26;21033;-82
2024/05/05 08:43:30;;;;;;;1.90;1.80;;;25.50;80.00;;;;;;5416786;26;20467;-82
2024/05/05 08:45:59;;;;;;;1.70;1.60;;;27.10;77.60;;;;;;5417317;26;20527;-82
2024/05/05 08:48:31;;;;;;;1.70;1.60;;;28.10;69.40;;;;;;5417060;26;20514;-82
2024/05/05 08:50:59;;;;;;;1.83;1.73;;;28.60;63.90;;;;;;5446421;26;20473;-82
2024/05/05 08:53:30;;;;;;;1.90;1.80;;;28.90;62.10;;;;;;5453398;26;21087;-82
2024/05/05 08:56:04;;;;;;;1.67;1.57;;;29.40;59.20;;;;;;5433206;26;21140;-82
2024/05/05 08:58:33;;;;;;;2.87;1.60;;;29.40;56.30;;;;;;5436659;26;20465;-82
2024/05/05 09:01:02;;;;;;;1.90;1.80;;;29.30;55.20;;;;;;5453710;26;20461;-82
2024/05/05 09:03:31;;;;;;;1.57;1.47;;;29.60;54.50;;;;;;5453404;26;20469;-82
2024/05/05 09:06:00;;;;;;;1.50;1.40;;;29.80;53.90;;;;;;5439305;26;20597;-82
2024/05/05 09:08:31;;;;;;;3.70;1.30;;;30.20;52.30;;;;;;5416921;26;20459;-82
2024/05/05 09:11:00;;;;;;;1.80;1.10;;;30.80;51.50;;;;;;5416092;26;20561;-83
2024/05/05 09:13:31;;;;;;;1.00;1.00;;;;;;;;;;5415779;26;20554;-83
2024/05/05 09:15:59;;;;;;;1.87;1.17;;;32.60;49.20;;;;;;5430553;26;20608;-83
2024/05/05 09:18:28;;;;;;;1.10;1.10;;;33.40;50.40;;;;;;5451015;26;20509;-83
2024/05/05 09:20:56;;;;;;;1.20;1.10;;;33.50;49.30;;;;;;5451247;26;20453;-83
2024/05/05 09:23:24;;;;;;;1.07;1.07;;;33.60;47.90;;;;;;5430851;26;21145;-83
2024/05/05 09:25:56;;;;;;;1.63;1.07;;;33.90;46.90;;;;;;5427714;26;20560;-83
2024/05/05 09:28:24;;;;;;;1.20;1.20;;;33.30;42.10;;;;;;5451547;26;20600;-82
2024/05/05 09:30:52;;;;;;;2.97;0.90;;;32.50;41.60;;;;;;5452759;26;20494;-82
2024/05/05 09:33:22;;;;;;;1.20;1.10;;;32.10;43.10;;;;;;5451676;26;20477;-82
2024/05/05 09:35:50;;;;;;;1.13;0.90;;;32.60;44.10;;;;;;5438669;26;20606;-82
2024/05/05 09:38:20;;;;;;;1.00;0.90;;;33.50;44.10;;;;;;5415706;26;20589;-83
2024/05/05 09:40:48;;;;;;;2.17;0.90;;;34.40;43.70;;;;;;5445411;26;20544;-83
2024/05/05 09:43:19;;;;;;;0.80;0.80;;;35.30;39.60;;;;;;5416502;26;20553;-83
2024/05/05 09:45:52;;;;;;;1.13;0.70;;;35.80;37.10;;;;;;5416960;26;21050;-83
2024/05/05 09:48:25;;;;;;;1.30;0.93;;;36.70;36.30;;;;;;5416680;26;20807;-83
2024/05/05 09:51:02;;;;;;;0.70;0.67;;;36.80;34.70;;;;;;5418185;26;20455;-83
2024/05/05 09:53:39;;;;;;;1.03;0.83;;;37.10;33.10;;;;;;5418519;26;20533;-82
2024/05/05 09:56:15;;;;;;;0.70;0.70;;;36.80;31.50;;;;;;5419264;26;21012;-83
2024/05/05 09:59:01;;;;;;;0.80;0.80;;;36.20;31.60;;;;;;5415258;26;20528;-82
2024/05/05 10:01:32;;;;;;;0.90;0.80;;;36.00;31.60;;;;;;5415973;26;20525;-82
2024/05/05 10:04:00;;;;;;;2.60;0.90;;;35.70;31.00;;;;;;5415764;26;20462;-82
2024/05/05 10:06:29;;;;;;;1.00;0.90;;;34.90;31.40;;;;;;5436650;26;20533;-82
2024/05/05 10:09:00;;;;;;;1.43;0.60;;;34.00;31.70;;;;;;5452854;26;20482;-82
2024/05/05 10:11:28;;;;;;;1.57;0.80;;;33.30;32.10;;;;;;5453293;26;20517;-82
2024/05/05 10:14:03;;;;;;;1.10;0.83;;;33.30;33.20;;;;;;5449367;26;20533;-82
2024/05/05 10:16:32;;;;;;;0.90;0.77;;;33.50;33.50;;;;;;5431159;26;21089;-82
2024/05/05 10:19:00;;;;;;;0.70;0.70;;;33.90;32.40;;;;;;5418953;26;20569;-82
2024/05/05 10:21:29;;;;;;;1.30;1.30;;;34.40;32.30;;;;;;5420554;26;20461;-82
2024/05/05 10:23:57;;;;;;;1.60;1.50;;;34.50;32.60;;;;;;5420921;26;20610;-82
2024/05/05 10:26:25;;;;;;;1.70;1.60;;;34.00;33.10;;;;;;5440296;26;20926;-82
2024/05/05 10:28:54;;;;;;;1.40;1.30;;;33.40;33.20;;;;;;5458503;26;20514;-82
2024/05/05 10:31:25;;;;;;;1.60;1.50;;;32.40;33.40;;;;;;5423179;26;20587;-82
2024/05/05 10:33:54;;;;;;;1.80;1.70;;;31.50;34.80;;;;;;5422798;26;20569;-82
2024/05/05 10:36:24;;;;;;;2.10;2.00;;;30.70;36.00;;;;;;5439397;26;20469;-82
2024/05/05 10:38:52;;;;;;;2.23;2.13;;;29.80;37.10;;;;;;5458524;26;20445;-82
2024/05/05 10:41:21;;;;;;;3.20;2.00;;;28.90;38.20;;;;;;5453236;26;20508;-81
2024/05/05 10:43:49;;;;;;;2.60;2.50;;;28.10;39.20;;;;;;5422562;26;20534;-82
2024/05/05 10:46:19;;;;;;;2.27;2.17;;;27.40;40.30;;;;;;5422568;26;20478;-81
2024/05/05 10:48:50;;;;;;;3.87;2.17;;;26.70;41.20;;;;;;5420893;26;20504;-81
2024/05/05 10:51:18;;;;;;;2.57;2.37;;;26.10;41.30;;;;;;5421520;26;20522;-82
2024/05/05 10:53:47;;;;;;;2.03;1.93;;;25.70;41.90;;;;;;5421731;26;20475;-82
2024/05/05 10:56:17;;;;;;;2.33;2.13;;;25.30;42.50;;;;;;5436688;26;20517;-82
2024/05/05 10:58:46;;;;;;;1.87;1.77;;;25.00;42.10;;;;;;5442907;26;20525;-82
2024/05/05 11:01:14;;;;;;;4.20;3.20;;;24.60;42.20;;;;;;5421372;26;20561;-81
2024/05/05 11:03:43;;;;;;;2.60;2.50;;;24.40;43.00;;;;;;5448879;26;20552;-82
2024/05/05 11:06:15;;;;;;;2.60;2.40;;;24.10;44.90;;;;;;5443764;26;21088;-81
2024/05/05 11:08:47;;;;;;;2.33;2.23;;;23.80;47.10;;;;;;5421300;26;20463;-81
2024/05/05 11:11:15;;;;;;;2.30;2.20;;;23.70;49.80;;;;;;5421629;26;20546;-81
2024/05/05 11:13:44;;;;;;;2.70;2.60;;;23.50;52.70;;;;;;5422039;26;20470;-81
2024/05/05 11:16:13;;;;;;;2.37;2.17;;;23.40;47.40;;;;;;5436088;26;20481;-82
2024/05/05 11:18:42;;;;;;;4.33;3.10;;;23.30;47.50;;;;;;5454496;26;20619;-82
2024/05/05 11:21:10;;;;;;;2.03;1.93;;;23.20;47.90;;;;;;5421992;26;20454;-81
2024/05/05 11:23:43;;;;;;;1.90;1.80;;;23.20;49.30;;;;;;5421035;26;20542;-81
2024/05/05 11:26:12;;;;;;;2.40;2.30;;;23.10;50.50;;;;;;5430444;26;20494;-81
2024/05/05 11:28:40;;;;;;;2.60;2.50;;;23.10;49.00;;;;;;5457092;26;20592;-82
2024/05/05 11:31:09;;;;;;;2.43;2.33;;;22.80;48.70;;;;;;5456592;26;20849;-81
2024/05/05 11:33:37;;;;;;;2.43;2.33;;;22.90;50.20;;;;;;5457533;26;20529;-81
2024/05/05 11:36:06;;;;;;;2.37;2.17;;;22.60;50.60;;;;;;5447677;26;20553;-81
2024/05/05 11:38:35;;;;;;;3.40;3.20;;;22.50;50.80;;;;;;5456261;26;20962;-81
2024/05/05 11:41:07;;;;;;;4.17;3.97;;;22.50;50.70;;;;;;5457244;26;20533;-81
2024/05/05 11:44:12;;;;;;;2.80;2.70;;;22.40;51.30;;;;;;5457494;26;20477;-81
2024/05/05 11:47:14;;;;;;;2.70;2.60;;;22.20;51.00;;;;;;5437601;26;20538;-81
2024/05/05 11:50:06;;;;;;;2.60;2.50;;;22.10;51.80;;;;;;5430240;26;20912;-81
2024/05/05 11:53:08;;;;;;;2.63;2.37;;;22.10;52.00;;;;;;5456968;26;20473;-81
2024/05/05 11:55:36;;;;;;;2.70;2.60;;;22.10;52.30;;;;;;5423534;26;20502;-82
2024/05/05 11:58:07;;;;;;;2.30;2.20;;;22.10;52.00;;;;;;5456952;26;20977;-81
2024/05/05 12:00:35;;;;;;;2.53;2.43;;;22.00;52.00;;;;;;5456250;26;20524;-81
2024/05/05 12:03:04;;;;;;;3.03;2.93;;;22.00;52.50;;;;;;5456302;26;20526;-81
2024/05/05 12:05:32;;;;;;;2.93;2.80;;;21.80;52.60;;;;;;5454270;26;20453;-81
2024/05/05 12:08:12;;;;;;;2.70;2.50;;;21.90;53.10;;;;;;5452920;26;20480;-81
2024/05/05 12:10:40;;;;;;;2.80;2.37;;;21.80;53.30;;;;;;5455269;26;20484;-81
2024/05/05 12:13:11;;;;;;;2.60;2.50;;;21.80;53.40;;;;;;5452790;26;20634;-81
2024/05/05 12:15:39;;;;;;;2.83;2.63;;;21.90;53.60;;;;;;5452557;26;20568;-81
2024/05/05 12:18:08;;;;;;;2.20;2.10;;;21.80;52.80;;;;;;5420313;26;20537;-81
2024/05/05 12:20:39;;;;;;;2.37;2.27;;;21.80;52.30;;;;;;5419823;26;20526;-81
2024/05/05 12:23:10;;;;;;;2.73;2.63;;;21.80;52.70;;;;;;5421927;26;20462;-81
2024/05/05 12:25:56;;;;;;;2.97;2.87;;;21.80;52.50;;;;;;5420551;26;20942;-81
2024/05/05 12:29:14;;;;;;;5.50;2.63;;;21.70;53.00;;;;;;5442260;26;20548;-81
2024/05/05 12:31:43;;;;;;;2.90;2.80;;;21.60;53.10;;;;;;5449641;26;20540;-81
2024/05/05 12:34:11;;;;;;;3.40;2.30;;;21.70;54.20;;;;;;5455492;26;20514;-81
2024/05/05 12:36:52;;;;;;;2.20;2.10;;;21.60;54.00;;;;;;5437929;26;20467;-81
2024/05/05 12:39:26;;;;;;;2.03;1.93;;;21.70;53.50;;;;;;5421072;26;20467;-81
2024/05/05 12:41:55;;;;;;;2.53;2.33;;;21.70;53.30;;;;;;5419258;26;20454;-81
2024/05/05 12:44:26;;;;;;;2.40;2.20;;;21.70;52.60;;;;;;5418882;26;20563;-81
2024/05/05 12:47:15;;;;;;;2.23;2.13;;;21.70;52.80;;;;;;5433819;26;20546;-81
2024/05/05 12:49:44;;;;;;;2.13;2.03;;;21.70;52.30;;;;;;5418106;26;20874;-81
2024/05/05 12:52:13;;;;;;;2.20;2.10;;;21.50;52.40;;;;;;5417728;26;20983;-81
2024/05/05 12:54:42;;;;;;;3.50;3.30;;;21.40;52.80;;;;;;5458675;21;20853;-84
2024/05/05 12:57:12;;;;;;;3.80;3.50;;;21.20;52.10;;;;;;5460590;26;20473;-82